createdAt,value
2018-10-12T00:01:43.636Z,24.23
2018-10-12T00:04:12.077Z,24.40
2018-10-12T00:06:40.707Z,23.57
2018-10-12T00:09:11.085Z,26.87
2018-10-12T00:11:40.278Z,26.70
2018-10-12T00:14:09.172Z,24.80
2018-10-12T00:16:37.672Z,23.17
2018-10-12T00:19:06.105Z,26.50
2018-10-12T00:21:34.536Z,26.27
2018-10-12T00:24:02.969Z,24.53
2018-10-12T00:26:31.429Z,25.50
2018-10-12T00:28:59.861Z,24.93
2018-10-12T00:31:28.347Z,22.90
2018-10-12T00:33:56.720Z,25.43
2018-10-12T00:36:25.133Z,29.77
2018-10-12T00:38:53.552Z,26.13
2018-10-12T00:41:22.013Z,27.30
2018-10-12T00:43:50.430Z,23.70
2018-10-12T00:46:18.865Z,26.60
2018-10-12T00:48:47.385Z,23.70
2018-10-12T00:51:15.803Z,28.50
2018-10-12T00:53:44.212Z,22.50
2018-10-12T00:56:12.649Z,23.07
2018-10-12T00:58:41.060Z,23.43
2018-10-12T01:01:09.619Z,21.73
2018-10-12T01:03:38.061Z,24.80
2018-10-12T01:06:06.496Z,30.30
2018-10-12T01:08:34.940Z,25.60
2018-10-12T01:11:03.393Z,19.20
2018-10-12T01:13:31.841Z,23.87
2018-10-12T01:16:00.299Z,23.73
2018-10-12T01:18:28.794Z,21.83
2018-10-12T01:20:57.398Z,19.00
2018-10-12T01:23:26.568Z,22.33
2018-10-12T01:25:55.141Z,28.63
2018-10-12T01:28:23.614Z,20.40
2018-10-12T01:30:52.088Z,21.53
2018-10-12T01:33:20.525Z,21.13
2018-10-12T01:35:48.977Z,21.47
2018-10-12T01:38:17.411Z,22.03
2018-10-12T01:40:45.888Z,24.27
2018-10-12T01:43:14.329Z,28.27
2018-10-12T01:45:42.875Z,21.27
2018-10-12T01:48:11.305Z,24.20
2018-10-12T01:50:39.756Z,24.50
2018-10-12T01:53:08.166Z,21.33
2018-10-12T01:55:36.628Z,27.30
2018-10-12T01:58:05.096Z,23.13
2018-10-12T02:00:33.553Z,25.73
2018-10-12T02:03:02.772Z,24.97
2018-10-12T02:05:31.356Z,24.70
2018-10-12T02:07:59.777Z,29.33
2018-10-12T02:10:28.210Z,30.03
2018-10-12T02:12:57.507Z,25.57
2018-10-12T02:15:26.337Z,25.30
2018-10-12T02:17:54.745Z,22.87
2018-10-12T02:20:23.172Z,22.80
2018-10-12T02:22:51.625Z,26.13
2018-10-12T02:25:20.068Z,20.10
2018-10-12T02:27:48.481Z,21.30
2018-10-12T02:30:16.979Z,27.27
2018-10-12T02:32:45.413Z,23.80
2018-10-12T02:35:13.832Z,28.87
2018-10-12T02:37:42.225Z,22.87
2018-10-12T02:40:10.691Z,23.70
2018-10-12T02:42:39.081Z,21.90
2018-10-12T02:45:07.511Z,21.20
2018-10-12T02:47:35.934Z,22.10
2018-10-12T02:50:04.516Z,23.87
2018-10-12T02:52:33.086Z,23.00
2018-10-12T02:55:01.493Z,21.83
2018-10-12T02:57:29.976Z,20.00
2018-10-12T02:59:58.512Z,22.27
2018-10-12T03:02:26.961Z,21.53
2018-10-12T03:04:55.371Z,18.77
2018-10-12T03:07:23.777Z,27.83
2018-10-12T03:09:52.212Z,23.93
2018-10-12T03:12:21.360Z,20.70
2018-10-12T03:14:49.829Z,24.13
2018-10-12T03:17:18.247Z,23.63
2018-10-12T03:19:46.696Z,26.57
2018-10-12T03:22:15.176Z,21.60
2018-10-12T03:24:43.678Z,20.33
2018-10-12T03:27:12.153Z,21.60
2018-10-12T03:29:40.608Z,20.03
2018-10-12T03:32:13.214Z,21.23
2018-10-12T03:34:41.862Z,19.40
2018-10-12T03:37:10.379Z,21.73
2018-10-12T03:39:38.892Z,20.07
2018-10-12T03:42:07.388Z,18.10
2018-10-12T03:44:35.872Z,21.40
2018-10-12T03:47:04.313Z,17.60
2018-10-12T03:49:32.787Z,15.47
2018-10-12T03:52:04.457Z,17.10
2018-10-12T03:54:32.875Z,14.63
2018-10-12T03:57:01.883Z,20.37
2018-10-12T03:59:30.352Z,14.20
2018-10-12T04:01:58.781Z,19.00
2018-10-12T04:04:27.216Z,17.33
2018-10-12T04:06:55.618Z,12.90
2018-10-12T04:09:24.090Z,15.30
2018-10-12T04:11:52.530Z,13.47
2018-10-12T04:14:21.009Z,14.90
2018-10-12T04:16:49.445Z,13.70
2018-10-12T04:19:17.913Z,13.73
2018-10-12T04:21:46.336Z,13.90
2018-10-12T04:24:14.747Z,15.53
2018-10-12T04:26:43.182Z,16.63
2018-10-12T04:29:11.588Z,14.60
2018-10-12T04:31:40.025Z,15.70
2018-10-12T04:34:08.572Z,18.90
2018-10-12T04:36:36.997Z,15.50
2018-10-12T04:39:16.829Z,14.70
2018-10-12T04:41:45.293Z,16.63
2018-10-12T04:44:13.753Z,13.37
2018-10-12T04:46:43.468Z,15.70
2018-10-12T04:49:13.019Z,19.37
2018-10-12T04:51:52.870Z,13.93
2018-10-12T04:54:21.885Z,15.63
2018-10-12T04:56:50.906Z,11.70
2018-10-12T04:59:19.689Z,16.00
2018-10-12T05:01:48.177Z,11.83
2018-10-12T05:04:16.637Z,12.00
2018-10-12T05:06:45.117Z,15.20
2018-10-12T05:09:14.249Z,15.43
2018-10-12T05:11:42.749Z,11.23
2018-10-12T05:14:11.790Z,13.80
2018-10-12T05:16:40.289Z,13.07
2018-10-12T05:19:08.973Z,12.27
2018-10-12T05:21:37.393Z,10.67
2018-10-12T05:24:05.861Z,12.80
2018-10-12T05:26:34.304Z,11.33
2018-10-12T05:29:02.849Z,14.00
2018-10-12T05:31:31.313Z,12.07
2018-10-12T05:33:59.877Z,15.83
2018-10-12T05:36:28.301Z,9.63
2018-10-12T05:38:56.873Z,14.70
2018-10-12T05:41:25.353Z,14.63
2018-10-12T05:43:53.839Z,13.63
2018-10-12T05:46:22.211Z,14.37
2018-10-12T05:49:07.906Z,14.83
2018-10-12T05:51:36.352Z,14.77
2018-10-12T05:54:04.969Z,16.07
2018-10-12T05:56:34.783Z,13.60
2018-10-12T05:59:03.332Z,11.50
2018-10-12T06:01:31.813Z,13.87
2018-10-12T06:04:00.332Z,9.87
2018-10-12T06:06:29.491Z,13.30
2018-10-12T06:08:57.917Z,9.87
2018-10-12T06:11:26.425Z,11.47
2018-10-12T06:13:54.761Z,7.67
2018-10-12T06:16:23.426Z,11.23
2018-10-12T06:18:52.047Z,8.10
2018-10-12T06:21:20.458Z,12.33
2018-10-12T06:23:48.882Z,14.30
2018-10-12T06:26:17.261Z,9.80
2018-10-12T06:28:45.684Z,14.37
2018-10-12T06:31:14.101Z,10.40
2018-10-12T06:33:42.517Z,12.13
2018-10-12T06:36:10.959Z,12.43
2018-10-12T06:38:39.900Z,13.23
2018-10-12T06:41:08.375Z,11.63
2018-10-12T06:43:36.752Z,11.60
2018-10-12T06:46:05.192Z,11.60
2018-10-12T06:48:33.594Z,11.40
2018-10-12T06:51:02.025Z,12.03
2018-10-12T06:53:30.433Z,15.37
2018-10-12T06:55:58.867Z,13.60
2018-10-12T06:58:27.260Z,13.03
2018-10-12T07:00:55.676Z,14.93
2018-10-12T07:03:24.224Z,14.50
2018-10-12T07:05:52.634Z,14.73
2018-10-12T07:08:21.061Z,12.30
2018-10-12T07:10:49.480Z,12.97
2018-10-12T07:13:17.876Z,12.67
2018-10-12T07:15:46.320Z,14.90
2018-10-12T07:18:14.704Z,11.90
2018-10-12T07:20:43.174Z,11.63
2018-10-12T07:23:11.616Z,12.87
2018-10-12T07:25:40.039Z,13.13
2018-10-12T07:28:08.473Z,12.07
2018-10-12T07:30:36.880Z,11.80
2018-10-12T07:33:05.337Z,14.60
2018-10-12T07:35:34.331Z,10.77
2018-10-12T07:38:02.898Z,12.93
2018-10-12T07:40:31.297Z,12.80
2018-10-12T07:42:59.667Z,11.37
2018-10-12T07:45:28.064Z,10.80
2018-10-12T07:47:56.452Z,12.00
2018-10-12T07:50:24.856Z,15.30
2018-10-12T07:52:53.269Z,9.93
2018-10-12T07:55:21.682Z,17.23
2018-10-12T07:57:50.069Z,11.00
2018-10-12T08:00:18.532Z,14.07
2018-10-12T08:02:46.865Z,10.20
2018-10-12T08:05:15.301Z,12.03
2018-10-12T08:07:43.761Z,12.57
2018-10-12T08:10:12.266Z,10.93
2018-10-12T08:12:41.301Z,11.17
2018-10-12T08:15:09.729Z,10.47
2018-10-12T08:17:38.180Z,10.27
2018-10-12T08:20:07.840Z,9.50
2018-10-12T08:22:36.273Z,8.40
2018-10-12T08:25:05.049Z,9.60
2018-10-12T08:27:33.466Z,11.50
2018-10-12T08:30:01.888Z,10.20
2018-10-12T08:32:30.405Z,9.60
2018-10-12T08:34:58.853Z,11.53
2018-10-12T08:37:27.531Z,11.77
2018-10-12T08:39:55.996Z,8.53
2018-10-12T08:42:24.444Z,11.13
2018-10-12T08:44:53.090Z,12.33
2018-10-12T08:47:21.521Z,11.70
2018-10-12T08:49:49.920Z,10.53
2018-10-12T08:52:18.528Z,10.70
2018-10-12T08:54:46.945Z,14.43
2018-10-12T08:57:15.327Z,9.60
2018-10-12T08:59:43.711Z,10.83
2018-10-12T09:02:12.120Z,7.60
2018-10-12T09:04:41.145Z,11.70
2018-10-12T09:07:09.566Z,7.63
2018-10-12T09:09:37.950Z,14.13
2018-10-12T09:12:06.400Z,9.97
2018-10-12T09:14:34.776Z,11.87
2018-10-12T09:17:03.158Z,6.90
2018-10-12T09:19:31.561Z,10.03
2018-10-12T09:21:59.964Z,9.83
2018-10-12T09:24:28.382Z,5.47
2018-10-12T09:26:56.805Z,7.30
2018-10-12T09:29:25.236Z,7.07
2018-10-12T09:31:53.605Z,5.73
2018-10-12T09:34:22.009Z,8.67
2018-10-12T09:36:50.408Z,9.70
2018-10-12T09:39:18.834Z,6.37
2018-10-12T09:41:47.268Z,8.53
2018-10-12T09:44:15.638Z,7.80
2018-10-12T09:46:44.112Z,7.57
2018-10-12T09:49:12.493Z,7.90
2018-10-12T09:51:40.871Z,10.40
2018-10-12T09:54:09.903Z,9.77
2018-10-12T09:56:38.322Z,5.57
2018-10-12T09:59:06.959Z,5.37
2018-10-12T10:01:40.633Z,9.80
2018-10-12T10:04:14.869Z,6.63
2018-10-12T10:06:43.313Z,11.53
2018-10-12T10:09:11.696Z,10.00
2018-10-12T10:11:40.100Z,3.83
2018-10-12T10:14:09.115Z,9.83
2018-10-12T10:16:37.496Z,8.23
2018-10-12T10:19:06.000Z,5.23
2018-10-12T10:21:34.359Z,5.27
2018-10-12T10:24:02.772Z,7.90
2018-10-12T10:26:31.582Z,5.63
2018-10-12T10:28:59.665Z,11.67
2018-10-12T10:31:28.020Z,7.27
2018-10-12T10:33:56.571Z,5.10
2018-10-12T10:36:25.209Z,6.47
2018-10-12T10:38:53.640Z,8.13
2018-10-12T10:41:22.060Z,8.63
2018-10-12T10:43:50.772Z,5.03
2018-10-12T10:59:53.936Z,3.73
2018-10-12T11:02:22.321Z,5.30
2018-10-12T11:04:50.773Z,7.60
2018-10-12T11:07:19.189Z,8.40
2018-10-12T11:09:47.664Z,6.53
2018-10-12T11:12:16.234Z,9.00
2018-10-12T11:14:44.695Z,8.77
2018-10-12T11:17:13.208Z,5.13
2018-10-12T11:19:41.755Z,5.80
2018-10-12T11:22:10.116Z,6.07
2018-10-12T11:24:38.619Z,6.37
2018-10-12T11:27:07.641Z,6.20
2018-10-12T11:29:36.065Z,5.00
2018-10-12T11:32:04.481Z,10.50
2018-10-12T11:34:32.959Z,6.90
2018-10-12T11:37:01.377Z,6.93
2018-10-12T11:39:29.773Z,4.43
2018-10-12T11:41:58.172Z,4.23
2018-10-12T11:44:26.588Z,4.03
2018-10-12T11:46:55.508Z,7.10
2018-10-12T11:49:23.972Z,6.33
2018-10-12T11:51:52.360Z,7.50
2018-10-12T11:54:20.792Z,3.60
2018-10-12T11:56:49.244Z,3.80
2018-10-12T11:59:17.704Z,5.33
2018-10-12T12:01:46.176Z,4.90
2018-10-12T12:04:14.734Z,6.47
2018-10-12T12:06:43.357Z,7.10
2018-10-12T12:09:11.839Z,7.17
2018-10-12T12:11:40.292Z,5.43
2018-10-12T12:14:08.749Z,10.00
2018-10-12T12:16:37.206Z,8.20
2018-10-12T12:19:05.949Z,11.97
2018-10-12T12:21:34.426Z,5.40
2018-10-12T12:24:02.861Z,5.97
2018-10-12T12:26:31.384Z,6.33
2018-10-12T12:28:59.779Z,5.53
2018-10-12T12:31:28.168Z,5.90
2018-10-12T12:33:56.641Z,3.87
2018-10-12T12:36:25.151Z,6.43
2018-10-12T12:38:53.594Z,7.20
2018-10-12T12:41:22.020Z,8.27
2018-10-12T12:43:50.545Z,4.10
2018-10-12T12:46:18.965Z,8.40
2018-10-12T12:48:47.725Z,7.13
2018-10-12T12:51:15.896Z,5.90
2018-10-12T12:53:44.889Z,3.93
2018-10-12T12:56:13.521Z,3.47
2018-10-12T12:58:42.342Z,6.40
2018-10-12T13:01:10.740Z,10.63
2018-10-12T13:03:39.160Z,6.23
2018-10-12T13:06:07.677Z,4.10
2018-10-12T13:08:36.278Z,4.40
2018-10-12T13:11:04.673Z,7.03
2018-10-12T13:13:33.066Z,3.30
2018-10-12T13:16:01.475Z,2.80
2018-10-12T13:18:29.873Z,6.43
2018-10-12T13:20:58.283Z,2.17
2018-10-12T13:23:26.725Z,3.87
2018-10-12T13:25:55.201Z,4.23
2018-10-12T13:28:23.525Z,6.73
2018-10-12T13:30:51.929Z,5.77
2018-10-12T13:33:20.354Z,3.87
2018-10-12T13:35:48.857Z,2.83
2018-10-12T13:38:17.275Z,7.00
2018-10-12T13:40:45.704Z,8.00
2018-10-12T13:43:14.120Z,5.27
2018-10-12T13:45:43.500Z,8.93
2018-10-12T13:48:11.946Z,3.70
2018-10-12T13:50:40.368Z,2.90
2018-10-12T13:53:09.450Z,4.77
2018-10-12T13:55:38.580Z,7.00
2018-10-12T13:58:07.033Z,4.30
2018-10-12T14:00:35.412Z,7.10
2018-10-12T14:03:03.856Z,5.33
2018-10-12T14:05:32.888Z,8.77
2018-10-12T14:08:01.331Z,6.33
2018-10-12T14:10:29.759Z,6.80
2018-10-12T14:12:58.276Z,5.30
2018-10-12T14:15:26.665Z,6.23
2018-10-12T14:17:55.150Z,3.60
2018-10-12T14:20:23.523Z,5.57
2018-10-12T14:22:51.946Z,7.23
2018-10-12T14:25:20.381Z,5.90
2018-10-12T14:27:48.751Z,5.60
2018-10-12T14:30:17.198Z,8.80
2018-10-12T14:32:45.628Z,8.20
2018-10-12T14:35:14.061Z,7.10
2018-10-12T14:37:42.606Z,5.77
2018-10-12T14:40:10.996Z,6.47
2018-10-12T14:42:39.405Z,5.60
2018-10-12T14:45:07.900Z,4.07
2018-10-12T14:47:36.781Z,4.40
2018-10-12T14:50:05.786Z,4.17
2018-10-12T14:52:34.199Z,4.30
2018-10-12T14:55:02.636Z,6.90
2018-10-12T14:57:31.078Z,5.27
2018-10-12T14:59:59.556Z,4.10
2018-10-12T15:02:28.009Z,4.90
2018-10-12T15:04:56.395Z,7.73
2018-10-12T15:07:24.977Z,5.33
2018-10-12T15:09:53.397Z,8.03
2018-10-12T15:12:21.871Z,5.30
2018-10-12T15:15:01.685Z,13.00
2018-10-12T15:17:30.119Z,5.80
2018-10-12T15:19:58.596Z,6.60
2018-10-12T15:22:27.572Z,4.13
2018-10-12T15:24:56.069Z,8.67
2018-10-12T15:27:24.605Z,13.13
2018-10-12T15:29:53.007Z,5.40
2018-10-12T15:32:21.405Z,3.90
2018-10-12T15:34:49.843Z,5.80
2018-10-12T15:37:18.328Z,4.83
2018-10-12T15:39:46.701Z,8.83
2018-10-12T15:42:15.152Z,9.10
2018-10-12T15:44:43.788Z,5.77
2018-10-12T15:47:12.197Z,5.43
2018-10-12T15:49:40.729Z,3.43
2018-10-12T15:52:09.225Z,6.27
2018-10-12T15:54:37.760Z,7.93
2018-10-12T15:57:06.288Z,11.20
2018-10-12T15:59:36.349Z,7.87
2018-10-12T16:02:04.945Z,6.77
2018-10-12T16:04:33.308Z,5.77
2018-10-12T16:07:01.785Z,3.93
2018-10-12T16:09:30.264Z,6.13
2018-10-12T16:11:59.113Z,7.77
2018-10-12T16:14:27.579Z,6.87
2018-10-12T16:16:55.976Z,8.50
2018-10-12T16:19:24.392Z,7.07
2018-10-12T16:21:52.801Z,4.23
2018-10-12T16:24:21.224Z,8.10
2018-10-12T16:26:49.649Z,13.17
2018-10-12T16:29:18.036Z,8.83
2018-10-12T16:31:47.175Z,7.93
2018-10-12T16:34:15.641Z,10.53
2018-10-12T16:36:44.125Z,8.43
2018-10-12T16:39:13.553Z,7.53
2018-10-12T16:41:41.972Z,8.63
2018-10-12T16:44:10.423Z,9.17
2018-10-12T16:46:38.839Z,6.47
2018-10-12T16:49:07.247Z,8.93
2018-10-12T16:51:35.648Z,7.40
2018-10-12T16:54:04.449Z,6.30
2018-10-12T16:56:32.873Z,6.40
2018-10-12T16:59:01.269Z,4.03
2018-10-12T17:01:29.720Z,12.03
2018-10-12T17:03:58.152Z,10.80
2018-10-12T17:06:26.575Z,6.93
2018-10-12T17:08:54.984Z,10.40
2018-10-12T17:11:23.468Z,7.97
2018-10-12T17:13:51.865Z,7.20
2018-10-12T17:16:20.272Z,9.70
2018-10-12T17:18:48.684Z,5.87
2018-10-12T17:21:17.100Z,6.20
2018-10-12T17:23:46.329Z,5.93
2018-10-12T17:26:14.756Z,5.13
2018-10-12T17:28:43.209Z,6.87
2018-10-12T17:31:11.596Z,6.13
2018-10-12T17:33:40.585Z,6.67
2018-10-12T17:36:09.009Z,7.20
2018-10-12T17:38:37.468Z,8.40
2018-10-12T17:41:16.404Z,4.93
2018-10-12T17:43:44.982Z,6.33
2018-10-12T17:46:13.680Z,9.93
2018-10-12T17:48:42.266Z,6.77
2018-10-12T17:51:11.365Z,4.43
2018-10-12T17:53:39.776Z,5.70
2018-10-12T17:56:08.756Z,8.37
2018-10-12T17:58:37.184Z,5.63
2018-10-12T18:01:06.312Z,6.73
2018-10-12T18:03:34.742Z,8.03
2018-10-12T18:06:04.115Z,6.00
2018-10-12T18:08:32.861Z,5.87
2018-10-12T18:11:01.530Z,4.80
2018-10-12T18:13:29.923Z,8.70
2018-10-12T18:15:58.308Z,8.17
2018-10-12T18:18:26.773Z,5.67
2018-10-12T18:20:55.182Z,12.70
2018-10-12T18:23:23.592Z,7.87
2018-10-12T18:25:52.029Z,6.80
2018-10-12T18:28:20.425Z,6.77
2018-10-12T18:30:48.852Z,8.10
2018-10-12T18:33:17.277Z,6.80
2018-10-12T18:35:45.865Z,6.63
2018-10-12T18:38:14.551Z,5.13
2018-10-12T18:40:43.005Z,5.47
2018-10-12T18:43:11.457Z,8.67
2018-10-12T18:45:39.914Z,7.13
2018-10-12T18:48:08.449Z,8.57
2018-10-12T18:50:36.879Z,10.87
2018-10-12T18:53:05.265Z,5.83
2018-10-12T18:55:33.768Z,8.30
2018-10-12T18:58:02.266Z,7.50
2018-10-12T19:00:31.393Z,11.80
2018-10-12T19:02:59.987Z,7.00
2018-10-12T19:05:28.417Z,7.60
2018-10-12T19:07:56.896Z,6.33
2018-10-12T19:10:25.348Z,8.50
2018-10-12T19:12:53.872Z,7.17
2018-10-12T19:15:22.269Z,6.57
2018-10-12T19:17:50.688Z,5.73
2018-10-12T19:20:19.239Z,7.27
2018-10-12T19:22:47.719Z,9.73
2018-10-12T19:25:16.411Z,13.33
2018-10-12T19:27:44.867Z,10.37
2018-10-12T19:30:13.418Z,4.83
2018-10-12T19:32:42.636Z,9.40
2018-10-12T19:35:11.049Z,13.23
2018-10-12T19:37:39.605Z,5.57
2018-10-12T19:40:08.486Z,10.13
2018-10-12T19:42:37.552Z,5.73
2018-10-12T19:45:06.135Z,12.97
2018-10-12T19:47:34.618Z,8.23
2018-10-12T19:50:03.116Z,5.63
2018-10-12T19:52:31.679Z,8.43
2018-10-12T19:55:00.141Z,5.50
2018-10-12T19:57:28.561Z,8.27
2018-10-12T19:59:57.052Z,12.07
2018-10-12T20:02:25.481Z,7.50
2018-10-12T20:04:53.966Z,7.10
2018-10-12T20:07:22.397Z,6.07
2018-10-12T20:09:50.914Z,7.93
2018-10-12T20:12:19.360Z,7.00
2018-10-12T20:14:47.835Z,5.20
2018-10-12T20:17:16.255Z,7.23
2018-10-12T20:19:44.693Z,8.40
2018-10-12T20:22:13.681Z,12.77
2018-10-12T20:24:42.082Z,3.70
2018-10-12T20:27:10.504Z,4.80
2018-10-12T20:29:38.928Z,6.10
2018-10-12T20:32:07.810Z,4.70
2018-10-12T20:34:36.260Z,9.97
2018-10-12T20:37:05.276Z,5.60
2018-10-12T20:39:33.725Z,7.03
2018-10-12T20:42:02.194Z,6.60
2018-10-12T20:44:30.648Z,6.27
2018-10-12T20:46:59.101Z,9.40
2018-10-12T20:49:27.526Z,6.57
2018-10-12T20:51:55.935Z,9.00
2018-10-12T20:54:24.391Z,14.10
2018-10-12T20:56:52.865Z,6.90
2018-10-12T20:59:21.260Z,8.60
2018-10-12T21:01:49.702Z,12.90
2018-10-12T21:04:18.853Z,5.20
2018-10-12T21:06:47.260Z,8.43
2018-10-12T21:09:15.725Z,14.07
2018-10-12T21:11:44.165Z,7.07
2018-10-12T21:14:12.712Z,10.10
2018-10-12T21:16:41.122Z,8.13
2018-10-12T21:19:09.580Z,6.53
2018-10-12T21:21:37.961Z,7.60
2018-10-12T21:24:06.417Z,7.10
2018-10-12T21:26:35.332Z,8.57
2018-10-12T21:29:03.789Z,8.20
2018-10-12T21:31:32.280Z,6.23
2018-10-12T21:34:01.457Z,9.07
2018-10-12T21:36:29.848Z,7.80
2018-10-12T21:38:58.324Z,3.60
2018-10-12T21:41:26.717Z,8.00
2018-10-12T21:43:55.147Z,8.63
2018-10-12T21:46:23.583Z,6.47
2018-10-12T21:48:52.004Z,8.73
2018-10-12T21:51:20.471Z,6.67
2018-10-12T21:53:48.945Z,5.93
2018-10-12T21:56:17.397Z,5.10
2018-10-12T21:58:45.905Z,8.67
2018-10-12T22:01:14.345Z,8.80
2018-10-12T22:03:42.769Z,10.73
2018-10-12T22:06:11.288Z,6.17
2018-10-12T22:08:45.057Z,10.07
2018-10-12T22:11:13.537Z,10.10
2018-10-12T22:13:42.620Z,7.23
2018-10-12T22:16:11.625Z,12.13
2018-10-12T22:18:40.477Z,10.60
2018-10-12T22:21:08.992Z,7.47
2018-10-12T22:23:37.732Z,12.57
2018-10-12T22:26:06.285Z,10.47
2018-10-12T22:28:34.629Z,10.47
2018-10-12T22:31:03.048Z,6.20
2018-10-12T22:33:31.432Z,10.97
2018-10-12T22:35:59.876Z,6.20
2018-10-12T22:38:28.377Z,8.23
2018-10-12T22:40:56.835Z,10.30
2018-10-12T22:43:25.316Z,13.00
2018-10-12T22:45:53.943Z,8.80
2018-10-12T22:48:22.321Z,14.93
2018-10-12T22:50:50.893Z,6.83
2018-10-12T22:53:19.344Z,12.23
2018-10-12T22:55:47.957Z,12.00
2018-10-12T22:58:16.400Z,9.33
2018-10-12T23:00:44.815Z,6.10
2018-10-12T23:03:13.217Z,12.50
2018-10-12T23:05:41.690Z,11.50
2018-10-12T23:08:10.113Z,5.47
2018-10-12T23:10:38.628Z,9.80
2018-10-12T23:13:07.042Z,13.80
2018-10-12T23:15:35.481Z,10.53
2018-10-12T23:18:03.881Z,19.07
2018-10-12T23:20:32.293Z,9.37
2018-10-12T23:23:00.705Z,9.60
2018-10-12T23:25:29.104Z,9.77
2018-10-12T23:27:57.541Z,8.60
2018-10-12T23:30:25.936Z,11.33
2018-10-12T23:32:59.248Z,9.40
2018-10-12T23:35:27.684Z,10.20
2018-10-12T23:37:56.080Z,9.87
2018-10-12T23:40:24.539Z,7.27
2018-10-12T23:42:53.028Z,8.67
2018-10-12T23:45:21.514Z,12.20
2018-10-12T23:47:49.976Z,13.20
2018-10-12T23:50:18.375Z,11.90
2018-10-12T23:52:46.791Z,13.70
2018-10-12T23:55:15.214Z,6.83
2018-10-12T23:57:43.624Z,10.60
